RYR6K LICJ-LIMC
Flight info
| Callsign | RYR6K |
|---|---|
| Flight time | 1h 43m |
| Altitude | 36000 |
| Route | GIANO DCT RONAB DCT RUVIP DCT BETOT DCT POKAV DCT TINTO DCT ELB DCT UPDIN DCT SPEZI DCT IDONA/N0334F180 Y69 MEBUR |
| Aircraft | B738/M-SDE2E3FGHIRWXY/LB1 |
Departure
| Time | 2026-05-01 07:30 |
|---|---|
| Airport | Falcone–Borsellino Airport (LICJ) |
Arrival
| Time | 2026-05-01 09:13 |
|---|---|
| Airport | Milan Malpensa International Airport (LIMC) |
| Time | Latitude | Longitude | Altitude | Speed | Heading |
|---|---|---|---|---|---|
| 2026-05-01 07:25 | 38.18299 | 13.10382 | 64 ft | 2 kts | 248° |
| 2026-05-01 07:25 | 38.18282 | 13.10335 | 63 ft | 9 kts | 246° |
| 2026-05-01 07:26 | 38.18250 | 13.10239 | 63 ft | 14 kts | 246° |
| 2026-05-01 07:26 | 38.18201 | 13.10095 | 59 ft | 21 kts | 247° |
| 2026-05-01 07:26 | 38.18144 | 13.09924 | 55 ft | 12 kts | 246° |
| 2026-05-01 07:26 | 38.18091 | 13.09867 | 56 ft | 10 kts | 168° |
| 2026-05-01 07:27 | 38.18037 | 13.09837 | 58 ft | 11 kts | 244° |
| 2026-05-01 07:27 | 38.17998 | 13.09722 | 56 ft | 17 kts | 248° |
| 2026-05-01 07:27 | 38.17941 | 13.09551 | 52 ft | 23 kts | 246° |
| 2026-05-01 07:27 | 38.17869 | 13.09341 | 46 ft | 27 kts | 247° |
| 2026-05-01 07:28 | 38.17788 | 13.09100 | 40 ft | 27 kts | 247° |
| 2026-05-01 07:28 | 38.17719 | 13.08935 | 36 ft | 20 kts | 223° |
| 2026-05-01 07:28 | 38.17627 | 13.08848 | 37 ft | 15 kts | 216° |
| 2026-05-01 07:28 | 38.17536 | 13.08761 | 39 ft | 12 kts | 216° |
| 2026-05-01 07:29 | 38.17481 | 13.08763 | 42 ft | 8 kts | 115° |
| 2026-05-01 07:29 | 38.17486 | 13.08811 | 44 ft | 0 kts | 68° |
| 2026-05-01 07:29 | 38.17489 | 13.08818 | 44 ft | 13 kts | 68° |
| 2026-05-01 07:29 | 38.17644 | 13.09267 | 52 ft | 95 kts | 68° |
| 2026-05-01 07:30 | 38.17998 | 13.10333 | 85 ft | 162 kts | 66° |
| 2026-05-01 07:30 | 38.18454 | 13.11678 | 832 ft | 168 kts | 65° |
| 2026-05-01 07:30 | 38.18910 | 13.13001 | 1664 ft | 174 kts | 66° |
| 2026-05-01 07:30 | 38.19354 | 13.14454 | 2272 ft | 183 kts | 67° |
| 2026-05-01 07:31 | 38.19844 | 13.16045 | 2699 ft | 206 kts | 66° |
| 2026-05-01 07:31 | 38.23691 | 13.18265 | 4479 ft | 247 kts | 343° |
| 2026-05-01 07:32 | 38.26254 | 13.15313 | 6052 ft | 265 kts | 298° |
| 2026-05-01 07:32 | 38.27010 | 13.13195 | 6974 ft | 266 kts | 295° |
| 2026-05-01 07:33 | 38.28517 | 13.08968 | 8852 ft | 265 kts | 298° |
| 2026-05-01 07:33 | 38.29317 | 13.06903 | 9751 ft | 265 kts | 298° |
| 2026-05-01 07:33 | 38.30995 | 13.02667 | 11341 ft | 271 kts | 298° |
| 2026-05-01 07:34 | 38.31840 | 13.00534 | 12154 ft | 273 kts | 298° |
| 2026-05-01 07:34 | 38.33546 | 12.96222 | 13640 ft | 277 kts | 298° |
| 2026-05-01 07:34 | 38.34414 | 12.94030 | 14348 ft | 280 kts | 299° |
| 2026-05-01 07:35 | 38.35436 | 12.91934 | 15074 ft | 280 kts | 309° |
| 2026-05-01 07:35 | 38.36837 | 12.90199 | 15737 ft | 284 kts | 320° |
| 2026-05-01 07:35 | 38.38421 | 12.88726 | 16393 ft | 287 kts | 324° |
| 2026-05-01 07:35 | 38.40066 | 12.87295 | 17058 ft | 289 kts | 324° |
| 2026-05-01 07:36 | 38.41726 | 12.85850 | 17672 ft | 292 kts | 323° |
| 2026-05-01 07:36 | 38.43397 | 12.84370 | 18332 ft | 293 kts | 323° |
| 2026-05-01 07:36 | 38.45065 | 12.82873 | 18930 ft | 296 kts | 322° |
| 2026-05-01 07:36 | 38.46742 | 12.81359 | 19556 ft | 297 kts | 322° |
| 2026-05-01 07:37 | 38.50136 | 12.78284 | 20759 ft | 301 kts | 322° |
| 2026-05-01 07:37 | 38.51846 | 12.76735 | 21297 ft | 304 kts | 322° |
| 2026-05-01 07:37 | 38.53566 | 12.75175 | 21854 ft | 306 kts | 322° |
| 2026-05-01 07:38 | 38.55296 | 12.73607 | 22416 ft | 307 kts | 321° |
| 2026-05-01 07:38 | 38.57036 | 12.72028 | 22906 ft | 309 kts | 321° |
| 2026-05-01 07:38 | 38.60542 | 12.68845 | 23929 ft | 313 kts | 321° |
| 2026-05-01 07:39 | 38.62313 | 12.67237 | 24457 ft | 313 kts | 321° |
| 2026-05-01 07:39 | 38.64092 | 12.65618 | 24910 ft | 315 kts | 321° |
| 2026-05-01 07:39 | 38.67662 | 12.62370 | 25855 ft | 318 kts | 320° |
| 2026-05-01 07:40 | 38.69463 | 12.60728 | 26290 ft | 319 kts | 320° |
| 2026-05-01 07:40 | 38.71280 | 12.59071 | 26706 ft | 321 kts | 320° |
| 2026-05-01 07:40 | 38.73098 | 12.57412 | 27135 ft | 322 kts | 320° |
| 2026-05-01 07:40 | 38.74907 | 12.55760 | 27522 ft | 324 kts | 320° |
| 2026-05-01 07:41 | 38.76743 | 12.54082 | 27943 ft | 325 kts | 320° |
| 2026-05-01 07:41 | 38.78584 | 12.52400 | 28324 ft | 326 kts | 320° |
| 2026-05-01 07:41 | 38.82283 | 12.49017 | 29093 ft | 328 kts | 319° |
| 2026-05-01 07:42 | 38.84153 | 12.47306 | 29418 ft | 331 kts | 319° |
| 2026-05-01 07:42 | 38.86052 | 12.45616 | 29721 ft | 334 kts | 321° |
| 2026-05-01 07:42 | 38.88086 | 12.44102 | 30080 ft | 339 kts | 326° |
| 2026-05-01 07:42 | 38.90207 | 12.42817 | 30438 ft | 342 kts | 329° |
| 2026-05-01 07:43 | 38.92412 | 12.41607 | 30776 ft | 344 kts | 330° |
| 2026-05-01 07:43 | 38.94645 | 12.40418 | 31058 ft | 347 kts | 330° |
| 2026-05-01 07:43 | 38.99103 | 12.38033 | 31610 ft | 351 kts | 329° |
| 2026-05-01 07:44 | 39.03625 | 12.35581 | 32205 ft | 353 kts | 329° |
| 2026-05-01 07:44 | 39.08157 | 12.33096 | 32795 ft | 356 kts | 328° |
| 2026-05-01 07:45 | 39.10451 | 12.31833 | 33094 ft | 358 kts | 328° |
| 2026-05-01 07:45 | 39.12712 | 12.30588 | 33441 ft | 358 kts | 328° |
| 2026-05-01 07:45 | 39.15012 | 12.29319 | 33667 ft | 361 kts | 328° |
| 2026-05-01 07:45 | 39.17325 | 12.28040 | 33996 ft | 361 kts | 328° |
| 2026-05-01 07:46 | 39.19643 | 12.26759 | 34257 ft | 363 kts | 328° |
| 2026-05-01 07:46 | 39.21970 | 12.25469 | 34477 ft | 364 kts | 328° |
| 2026-05-01 07:46 | 39.26669 | 12.22859 | 34823 ft | 371 kts | 328° |
| 2026-05-01 07:47 | 39.29019 | 12.21555 | 34985 ft | 374 kts | 329° |
| 2026-05-01 07:47 | 39.31405 | 12.20233 | 35228 ft | 374 kts | 329° |
| 2026-05-01 07:47 | 39.33807 | 12.18901 | 35388 ft | 377 kts | 329° |
| 2026-05-01 07:47 | 39.36217 | 12.17563 | 35665 ft | 377 kts | 330° |
| 2026-05-01 07:48 | 39.41076 | 12.14863 | 36075 ft | 380 kts | 330° |
| 2026-05-01 07:48 | 39.45942 | 12.12153 | 36137 ft | 381 kts | 330° |
| 2026-05-01 07:49 | 39.53160 | 12.08132 | 36140 ft | 378 kts | 330° |
| 2026-05-01 07:50 | 39.58015 | 12.05412 | 36142 ft | 378 kts | 330° |
| 2026-05-01 07:50 | 39.65255 | 12.01356 | 36145 ft | 377 kts | 330° |
| 2026-05-01 07:51 | 39.70051 | 11.98664 | 36141 ft | 378 kts | 330° |
| 2026-05-01 07:52 | 39.77264 | 11.94606 | 36148 ft | 376 kts | 330° |
| 2026-05-01 07:52 | 39.82066 | 11.91900 | 36146 ft | 378 kts | 330° |
| 2026-05-01 07:53 | 39.89314 | 11.87867 | 36148 ft | 380 kts | 332° |
| 2026-05-01 07:53 | 39.94231 | 11.85410 | 36152 ft | 378 kts | 333° |
| 2026-05-01 07:55 | 40.06520 | 11.79334 | 36149 ft | 380 kts | 333° |
| 2026-05-01 07:56 | 40.18826 | 11.73160 | 36158 ft | 377 kts | 333° |
| 2026-05-01 07:57 | 40.26161 | 11.69464 | 36157 ft | 376 kts | 333° |
| 2026-05-01 07:58 | 40.35925 | 11.64530 | 36156 ft | 377 kts | 333° |
| 2026-05-01 07:59 | 40.45701 | 11.59570 | 36153 ft | 376 kts | 333° |
| 2026-05-01 08:00 | 40.60280 | 11.52141 | 36163 ft | 374 kts | 333° |
| 2026-05-01 08:01 | 40.69961 | 11.47187 | 36166 ft | 375 kts | 334° |
| 2026-05-01 08:02 | 40.77248 | 11.43448 | 36156 ft | 375 kts | 334° |
| 2026-05-01 08:03 | 40.84491 | 11.39725 | 36159 ft | 373 kts | 334° |
| 2026-05-01 08:03 | 40.91739 | 11.35990 | 36163 ft | 373 kts | 334° |
| 2026-05-01 08:04 | 41.01426 | 11.30984 | 36161 ft | 372 kts | 334° |
| 2026-05-01 08:05 | 41.08660 | 11.27235 | 36163 ft | 372 kts | 334° |
| 2026-05-01 08:06 | 41.15906 | 11.23471 | 36164 ft | 371 kts | 334° |
| 2026-05-01 08:07 | 41.25531 | 11.18458 | 36172 ft | 372 kts | 334° |
| 2026-05-01 08:08 | 41.32742 | 11.14692 | 36168 ft | 371 kts | 334° |
| 2026-05-01 08:09 | 41.42385 | 11.09639 | 36181 ft | 372 kts | 334° |
| 2026-05-01 08:09 | 41.47233 | 11.07095 | 36189 ft | 371 kts | 335° |
| 2026-05-01 08:10 | 41.56854 | 11.02036 | 36195 ft | 371 kts | 335° |
| 2026-05-01 08:11 | 41.66481 | 10.96958 | 36195 ft | 371 kts | 335° |
| 2026-05-01 08:12 | 41.73679 | 10.93146 | 36199 ft | 370 kts | 335° |
| 2026-05-01 08:13 | 41.80928 | 10.89300 | 36194 ft | 371 kts | 335° |
| 2026-05-01 08:13 | 41.88145 | 10.85462 | 36215 ft | 372 kts | 336° |
| 2026-05-01 08:14 | 41.92961 | 10.82894 | 36198 ft | 373 kts | 336° |
| 2026-05-01 08:14 | 41.97809 | 10.80307 | 36205 ft | 372 kts | 336° |
| 2026-05-01 08:15 | 42.05024 | 10.76450 | 36239 ft | 374 kts | 336° |
| 2026-05-01 08:16 | 42.09843 | 10.73869 | 36234 ft | 372 kts | 336° |
| 2026-05-01 08:16 | 42.14647 | 10.71291 | 36234 ft | 372 kts | 336° |
| 2026-05-01 08:17 | 42.19454 | 10.68707 | 36242 ft | 372 kts | 336° |
| 2026-05-01 08:17 | 42.24296 | 10.66100 | 36228 ft | 371 kts | 336° |
| 2026-05-01 08:18 | 42.29157 | 10.63480 | 36233 ft | 372 kts | 336° |
| 2026-05-01 08:19 | 42.38801 | 10.58260 | 36240 ft | 371 kts | 337° |
| 2026-05-01 08:19 | 42.43589 | 10.55665 | 36236 ft | 371 kts | 337° |
| 2026-05-01 08:20 | 42.48403 | 10.53053 | 36236 ft | 371 kts | 337° |
| 2026-05-01 08:20 | 42.53191 | 10.50448 | 36245 ft | 371 kts | 337° |
| 2026-05-01 08:21 | 42.58003 | 10.47825 | 36243 ft | 372 kts | 338° |
| 2026-05-01 08:21 | 42.62848 | 10.45182 | 36251 ft | 373 kts | 337° |
| 2026-05-01 08:22 | 42.67656 | 10.42553 | 36242 ft | 372 kts | 338° |
| 2026-05-01 08:22 | 42.72498 | 10.39893 | 36256 ft | 373 kts | 336° |
| 2026-05-01 08:23 | 42.77156 | 10.36729 | 36238 ft | 372 kts | 332° |
| 2026-05-01 08:23 | 42.81660 | 10.33256 | 36244 ft | 374 kts | 331° |
| 2026-05-01 08:24 | 42.86259 | 10.29710 | 36260 ft | 374 kts | 331° |
| 2026-05-01 08:24 | 42.90801 | 10.26249 | 36260 ft | 375 kts | 332° |
| 2026-05-01 08:25 | 42.95385 | 10.22774 | 36270 ft | 372 kts | 332° |
| 2026-05-01 08:25 | 42.99916 | 10.19338 | 36255 ft | 375 kts | 332° |
| 2026-05-01 08:26 | 43.04496 | 10.15862 | 36266 ft | 375 kts | 332° |
| 2026-05-01 08:26 | 43.09048 | 10.12399 | 36251 ft | 375 kts | 332° |
| 2026-05-01 08:27 | 43.13642 | 10.08899 | 36269 ft | 377 kts | 332° |
| 2026-05-01 08:27 | 43.18218 | 10.05408 | 36280 ft | 376 kts | 332° |
| 2026-05-01 08:28 | 43.22821 | 10.01889 | 36270 ft | 377 kts | 333° |
| 2026-05-01 08:28 | 43.27448 | 9.98344 | 36265 ft | 378 kts | 333° |
| 2026-05-01 08:29 | 43.32010 | 9.94845 | 36270 ft | 377 kts | 332° |
| 2026-05-01 08:29 | 43.36604 | 9.91316 | 36272 ft | 378 kts | 333° |
| 2026-05-01 08:30 | 43.41217 | 9.87766 | 36278 ft | 379 kts | 333° |
| 2026-05-01 08:30 | 43.45809 | 9.84224 | 36279 ft | 379 kts | 333° |
| 2026-05-01 08:31 | 43.50442 | 9.80638 | 36275 ft | 381 kts | 333° |
| 2026-05-01 08:31 | 43.55088 | 9.77038 | 36273 ft | 382 kts | 333° |
| 2026-05-01 08:32 | 43.59705 | 9.73454 | 36279 ft | 381 kts | 333° |
| 2026-05-01 08:32 | 43.64343 | 9.69848 | 36289 ft | 384 kts | 333° |
| 2026-05-01 08:33 | 43.69014 | 9.66211 | 36279 ft | 382 kts | 333° |
| 2026-05-01 08:33 | 43.73626 | 9.62612 | 36292 ft | 384 kts | 333° |
| 2026-05-01 08:34 | 43.78290 | 9.58966 | 36291 ft | 384 kts | 333° |
| 2026-05-01 08:34 | 43.82962 | 9.55313 | 36292 ft | 387 kts | 333° |
| 2026-05-01 08:35 | 43.87672 | 9.51624 | 36285 ft | 386 kts | 333° |
| 2026-05-01 08:35 | 43.92343 | 9.47954 | 36257 ft | 385 kts | 333° |
| 2026-05-01 08:35 | 43.94693 | 9.46113 | 35956 ft | 380 kts | 334° |
| 2026-05-01 08:36 | 43.96991 | 9.44420 | 35548 ft | 375 kts | 338° |
| 2026-05-01 08:36 | 43.99373 | 9.43000 | 35154 ft | 369 kts | 343° |
| 2026-05-01 08:36 | 44.01781 | 9.41941 | 34737 ft | 364 kts | 348° |
| 2026-05-01 08:36 | 44.04229 | 9.41067 | 34307 ft | 359 kts | 350° |
| 2026-05-01 08:37 | 44.06640 | 9.40283 | 33883 ft | 355 kts | 351° |
| 2026-05-01 08:37 | 44.09025 | 9.39525 | 33471 ft | 351 kts | 351° |
| 2026-05-01 08:37 | 44.11370 | 9.38778 | 33075 ft | 347 kts | 351° |
| 2026-05-01 08:37 | 44.13728 | 9.38018 | 32661 ft | 343 kts | 351° |
| 2026-05-01 08:38 | 44.16042 | 9.37263 | 32264 ft | 340 kts | 351° |
| 2026-05-01 08:38 | 44.18328 | 9.36512 | 31861 ft | 337 kts | 351° |
| 2026-05-01 08:38 | 44.20588 | 9.35764 | 31467 ft | 333 kts | 351° |
| 2026-05-01 08:38 | 44.22840 | 9.35017 | 31073 ft | 330 kts | 351° |
| 2026-05-01 08:39 | 44.25077 | 9.34274 | 30674 ft | 327 kts | 350° |
| 2026-05-01 08:39 | 44.27306 | 9.33536 | 30289 ft | 336 kts | 350° |
| 2026-05-01 08:39 | 44.29657 | 9.32762 | 29861 ft | 350 kts | 350° |
| 2026-05-01 08:39 | 44.31991 | 9.31986 | 29432 ft | 349 kts | 350° |
| 2026-05-01 08:40 | 44.36672 | 9.30414 | 28579 ft | 342 kts | 351° |
| 2026-05-01 08:40 | 44.38971 | 9.29642 | 28157 ft | 339 kts | 350° |
| 2026-05-01 08:40 | 44.41239 | 9.28880 | 27741 ft | 336 kts | 351° |
| 2026-05-01 08:41 | 44.43514 | 9.28115 | 27329 ft | 332 kts | 351° |
| 2026-05-01 08:41 | 44.45729 | 9.27371 | 26918 ft | 330 kts | 351° |
| 2026-05-01 08:41 | 44.47951 | 9.26624 | 26506 ft | 327 kts | 351° |
| 2026-05-01 08:41 | 44.50150 | 9.25885 | 26098 ft | 324 kts | 352° |
| 2026-05-01 08:42 | 44.52334 | 9.25150 | 25689 ft | 321 kts | 352° |
| 2026-05-01 08:42 | 44.54483 | 9.24427 | 25281 ft | 318 kts | 352° |
| 2026-05-01 08:42 | 44.56604 | 9.23713 | 24885 ft | 315 kts | 352° |
| 2026-05-01 08:42 | 44.58714 | 9.23002 | 24496 ft | 312 kts | 352° |
| 2026-05-01 08:43 | 44.60809 | 9.22297 | 24099 ft | 309 kts | 352° |
| 2026-05-01 08:43 | 44.62886 | 9.21597 | 23717 ft | 306 kts | 352° |
| 2026-05-01 08:43 | 44.64956 | 9.20899 | 23317 ft | 303 kts | 352° |
| 2026-05-01 08:43 | 44.66971 | 9.20219 | 22942 ft | 300 kts | 352° |
| 2026-05-01 08:44 | 44.68990 | 9.19537 | 22562 ft | 297 kts | 352° |
| 2026-05-01 08:44 | 44.70993 | 9.18858 | 22192 ft | 294 kts | 352° |
| 2026-05-01 08:44 | 44.72969 | 9.18103 | 21793 ft | 294 kts | 347° |
| 2026-05-01 08:44 | 44.74817 | 9.16912 | 21428 ft | 300 kts | 334° |
| 2026-05-01 08:45 | 44.76460 | 9.15042 | 21025 ft | 307 kts | 321° |
| 2026-05-01 08:45 | 44.77825 | 9.12698 | 20620 ft | 312 kts | 312° |
| 2026-05-01 08:45 | 44.78994 | 9.10150 | 20212 ft | 314 kts | 308° |
| 2026-05-01 08:45 | 44.80101 | 9.07494 | 19789 ft | 314 kts | 307° |
| 2026-05-01 08:46 | 44.81186 | 9.04820 | 19381 ft | 313 kts | 307° |
| 2026-05-01 08:46 | 44.82251 | 9.02199 | 18998 ft | 312 kts | 307° |
| 2026-05-01 08:46 | 44.83334 | 8.99552 | 18599 ft | 311 kts | 306° |
| 2026-05-01 08:46 | 44.84409 | 8.96938 | 18186 ft | 309 kts | 306° |
| 2026-05-01 08:47 | 44.85495 | 8.94312 | 17791 ft | 308 kts | 306° |
| 2026-05-01 08:47 | 44.86576 | 8.91704 | 17387 ft | 308 kts | 306° |
| 2026-05-01 08:47 | 44.87642 | 8.89133 | 16988 ft | 308 kts | 306° |
| 2026-05-01 08:47 | 44.88721 | 8.86529 | 16576 ft | 307 kts | 306° |
| 2026-05-01 08:48 | 44.89793 | 8.83937 | 16174 ft | 306 kts | 306° |
| 2026-05-01 08:48 | 44.90861 | 8.81350 | 15773 ft | 305 kts | 305° |
| 2026-05-01 08:48 | 44.91919 | 8.78787 | 15372 ft | 305 kts | 305° |
| 2026-05-01 08:48 | 44.92986 | 8.76201 | 14968 ft | 304 kts | 305° |
| 2026-05-01 08:49 | 44.94036 | 8.73652 | 14584 ft | 304 kts | 305° |
| 2026-05-01 08:49 | 44.95101 | 8.71063 | 14175 ft | 303 kts | 304° |
| 2026-05-01 08:49 | 44.96147 | 8.68520 | 13776 ft | 302 kts | 304° |
| 2026-05-01 08:49 | 44.97194 | 8.65974 | 13379 ft | 302 kts | 304° |
| 2026-05-01 08:50 | 44.98250 | 8.63402 | 12982 ft | 301 kts | 304° |
| 2026-05-01 08:50 | 44.99355 | 8.60948 | 12576 ft | 298 kts | 311° |
| 2026-05-01 08:50 | 45.00834 | 8.58973 | 12207 ft | 289 kts | 333° |
| 2026-05-01 08:50 | 45.02676 | 8.58049 | 11965 ft | 279 kts | 351° |
| 2026-05-01 08:51 | 45.04592 | 8.57589 | 11727 ft | 280 kts | 352° |
| 2026-05-01 08:51 | 45.06520 | 8.57113 | 11466 ft | 279 kts | 351° |
| 2026-05-01 08:51 | 45.08409 | 8.56610 | 11213 ft | 278 kts | 351° |
| 2026-05-01 08:51 | 45.10311 | 8.56084 | 10965 ft | 277 kts | 350° |
| 2026-05-01 08:52 | 45.12190 | 8.55559 | 10735 ft | 277 kts | 350° |
| 2026-05-01 08:52 | 45.14066 | 8.55035 | 10384 ft | 276 kts | 350° |
| 2026-05-01 08:52 | 45.15938 | 8.54512 | 10187 ft | 268 kts | 350° |
| 2026-05-01 08:52 | 45.17777 | 8.54000 | 9818 ft | 269 kts | 349° |
| 2026-05-01 08:53 | 45.19595 | 8.53494 | 9470 ft | 268 kts | 350° |
| 2026-05-01 08:53 | 45.21413 | 8.52989 | 9250 ft | 261 kts | 350° |
| 2026-05-01 08:53 | 45.23166 | 8.52501 | 9033 ft | 256 kts | 350° |
| 2026-05-01 08:53 | 45.24913 | 8.52017 | 8767 ft | 252 kts | 350° |
| 2026-05-01 08:54 | 45.26623 | 8.51543 | 8529 ft | 250 kts | 350° |
| 2026-05-01 08:54 | 45.28310 | 8.51076 | 8293 ft | 248 kts | 351° |
| 2026-05-01 08:54 | 45.30013 | 8.50856 | 8035 ft | 247 kts | 5° |
| 2026-05-01 08:54 | 45.31635 | 8.51600 | 7883 ft | 247 kts | 33° |
| 2026-05-01 08:55 | 45.32863 | 8.53275 | 7637 ft | 250 kts | 53° |
| 2026-05-01 08:55 | 45.33643 | 8.55492 | 7300 ft | 252 kts | 72° |
| 2026-05-01 08:55 | 45.34012 | 8.57921 | 7004 ft | 251 kts | 78° |
| 2026-05-01 08:55 | 45.34298 | 8.60332 | 6713 ft | 251 kts | 80° |
| 2026-05-01 08:56 | 45.34374 | 8.62829 | 6407 ft | 253 kts | 95° |
| 2026-05-01 08:56 | 45.33763 | 8.65107 | 6278 ft | 248 kts | 127° |
| 2026-05-01 08:56 | 45.32438 | 8.66581 | 6278 ft | 247 kts | 155° |
| 2026-05-01 08:56 | 45.30761 | 8.67273 | 6264 ft | 249 kts | 168° |
| 2026-05-01 08:57 | 45.29080 | 8.67722 | 6188 ft | 244 kts | 168° |
| 2026-05-01 08:57 | 45.27415 | 8.68164 | 5936 ft | 244 kts | 168° |
| 2026-05-01 08:57 | 45.25745 | 8.68614 | 5937 ft | 244 kts | 168° |
| 2026-05-01 08:57 | 45.24059 | 8.69069 | 5937 ft | 248 kts | 168° |
| 2026-05-01 08:58 | 45.22364 | 8.69528 | 5923 ft | 248 kts | 168° |
| 2026-05-01 08:58 | 45.20680 | 8.69987 | 5904 ft | 247 kts | 168° |
| 2026-05-01 08:58 | 45.18994 | 8.70448 | 5907 ft | 243 kts | 168° |
| 2026-05-01 08:58 | 45.17374 | 8.70891 | 5908 ft | 234 kts | 168° |
| 2026-05-01 08:59 | 45.15777 | 8.71328 | 5785 ft | 230 kts | 167° |
| 2026-05-01 08:59 | 45.14223 | 8.71755 | 5525 ft | 230 kts | 167° |
| 2026-05-01 08:59 | 45.12646 | 8.72189 | 5259 ft | 231 kts | 167° |
| 2026-05-01 08:59 | 45.11060 | 8.72625 | 4997 ft | 232 kts | 167° |
| 2026-05-01 09:00 | 45.09502 | 8.73052 | 4917 ft | 229 kts | 167° |
| 2026-05-01 09:00 | 45.07914 | 8.73486 | 4921 ft | 231 kts | 167° |
| 2026-05-01 09:00 | 45.06346 | 8.73915 | 4913 ft | 231 kts | 167° |
| 2026-05-01 09:00 | 45.04772 | 8.74484 | 4902 ft | 230 kts | 155° |
| 2026-05-01 09:01 | 45.03502 | 8.75743 | 4884 ft | 225 kts | 123° |
| 2026-05-01 09:01 | 45.02943 | 8.77734 | 4912 ft | 218 kts | 93° |
| 2026-05-01 09:01 | 45.03027 | 8.79857 | 4929 ft | 215 kts | 78° |
| 2026-05-01 09:01 | 45.03311 | 8.81915 | 4925 ft | 214 kts | 77° |
| 2026-05-01 09:02 | 45.03606 | 8.83986 | 4924 ft | 214 kts | 76° |
| 2026-05-01 09:02 | 45.04048 | 8.85966 | 4912 ft | 213 kts | 60° |
| 2026-05-01 09:02 | 45.05061 | 8.87458 | 4901 ft | 213 kts | 28° |
| 2026-05-01 09:02 | 45.06503 | 8.88073 | 4732 ft | 220 kts | 6° |
| 2026-05-01 09:03 | 45.08026 | 8.87934 | 4482 ft | 220 kts | 352° |
| 2026-05-01 09:03 | 45.09512 | 8.87494 | 4223 ft | 219 kts | 350° |
| 2026-05-01 09:03 | 45.11018 | 8.87040 | 3967 ft | 219 kts | 351° |
| 2026-05-01 09:03 | 45.12502 | 8.86624 | 3934 ft | 217 kts | 352° |
| 2026-05-01 09:04 | 45.13983 | 8.86224 | 3925 ft | 219 kts | 352° |
| 2026-05-01 09:04 | 45.15474 | 8.85821 | 3918 ft | 219 kts | 352° |
| 2026-05-01 09:04 | 45.16985 | 8.85412 | 3932 ft | 220 kts | 352° |
| 2026-05-01 09:04 | 45.18481 | 8.85006 | 3937 ft | 220 kts | 352° |
| 2026-05-01 09:05 | 45.19978 | 8.84599 | 3926 ft | 219 kts | 352° |
| 2026-05-01 09:05 | 45.21486 | 8.84189 | 3924 ft | 219 kts | 352° |
| 2026-05-01 09:05 | 45.22988 | 8.83781 | 3922 ft | 220 kts | 352° |
| 2026-05-01 09:05 | 45.24497 | 8.83370 | 3927 ft | 221 kts | 352° |
| 2026-05-01 09:06 | 45.25991 | 8.82962 | 3923 ft | 220 kts | 352° |
| 2026-05-01 09:06 | 45.27488 | 8.82553 | 3928 ft | 220 kts | 352° |
| 2026-05-01 09:06 | 45.28988 | 8.82143 | 3926 ft | 216 kts | 352° |
| 2026-05-01 09:06 | 45.30456 | 8.81744 | 3931 ft | 217 kts | 352° |
| 2026-05-01 09:07 | 45.31938 | 8.81342 | 3925 ft | 217 kts | 352° |
| 2026-05-01 09:07 | 45.33435 | 8.80937 | 3921 ft | 217 kts | 352° |
| 2026-05-01 09:07 | 45.34915 | 8.80546 | 3927 ft | 218 kts | 352° |
| 2026-05-01 09:07 | 45.36417 | 8.80145 | 3936 ft | 218 kts | 352° |
| 2026-05-01 09:08 | 45.37897 | 8.79790 | 3923 ft | 216 kts | 354° |
| 2026-05-01 09:08 | 45.39398 | 8.79497 | 3938 ft | 217 kts | 355° |
| 2026-05-01 09:08 | 45.40889 | 8.79212 | 3936 ft | 217 kts | 355° |
| 2026-05-01 09:08 | 45.42386 | 8.78919 | 3937 ft | 217 kts | 354° |
| 2026-05-01 09:09 | 45.43897 | 8.78591 | 3940 ft | 218 kts | 352° |
| 2026-05-01 09:09 | 45.45367 | 8.78206 | 3695 ft | 218 kts | 351° |
| 2026-05-01 09:09 | 45.46865 | 8.77784 | 3315 ft | 215 kts | 351° |
| 2026-05-01 09:09 | 45.48283 | 8.77388 | 3162 ft | 203 kts | 352° |
| 2026-05-01 09:10 | 45.49635 | 8.77021 | 3020 ft | 194 kts | 352° |
| 2026-05-01 09:10 | 45.50925 | 8.76671 | 2862 ft | 186 kts | 352° |
| 2026-05-01 09:10 | 45.52197 | 8.76322 | 2619 ft | 184 kts | 351° |
| 2026-05-01 09:10 | 45.53435 | 8.75981 | 2387 ft | 174 kts | 351° |
| 2026-05-01 09:11 | 45.54572 | 8.75668 | 2147 ft | 157 kts | 352° |
| 2026-05-01 09:11 | 45.55616 | 8.75383 | 1920 ft | 151 kts | 352° |
| 2026-05-01 09:11 | 45.56655 | 8.75101 | 1742 ft | 155 kts | 351° |
| 2026-05-01 09:11 | 45.57703 | 8.74810 | 1503 ft | 150 kts | 351° |
| 2026-05-01 09:12 | 45.58717 | 8.74532 | 1316 ft | 148 kts | 351° |
| 2026-05-01 09:12 | 45.59741 | 8.74252 | 1115 ft | 149 kts | 350° |
| 2026-05-01 09:12 | 45.60749 | 8.73971 | 914 ft | 148 kts | 350° |
| 2026-05-01 09:12 | 45.61751 | 8.73700 | 720 ft | 146 kts | 350° |
| 2026-05-01 09:13 | 45.62571 | 8.73476 | 720 ft | 84 kts | 349° |
| 2026-05-01 09:13 | 45.62946 | 8.73375 | 729 ft | 34 kts | 350° |
| 2026-05-01 09:13 | 45.63104 | 8.73289 | 732 ft | 17 kts | 324° |
| 2026-05-01 09:13 | 45.63202 | 8.73172 | 735 ft | 15 kts | 310° |
| 2026-05-01 09:14 | 45.63274 | 8.73042 | 737 ft | 15 kts | 302° |
| 2026-05-01 09:14 | 45.63347 | 8.72886 | 740 ft | 22 kts | 303° |
| 2026-05-01 09:14 | 45.63408 | 8.72691 | 742 ft | 21 kts | 273° |
| 2026-05-01 09:14 | 45.63398 | 8.72574 | 743 ft | 4 kts | 258° |
| 2026-05-01 09:15 | 45.63387 | 8.72497 | 743 ft | 11 kts | 258° |
| 2026-05-01 09:15 | 45.63367 | 8.72354 | 743 ft | 18 kts | 259° |
| 2026-05-01 09:15 | 45.63343 | 8.72157 | 744 ft | 23 kts | 260° |
| 2026-05-01 09:15 | 45.63312 | 8.71923 | 744 ft | 26 kts | 261° |
| 2026-05-01 09:16 | 45.63278 | 8.71694 | 744 ft | 15 kts | 236° |
| 2026-05-01 09:16 | 45.63176 | 8.71690 | 742 ft | 19 kts | 169° |
| 2026-05-01 09:16 | 45.63050 | 8.71725 | 739 ft | 19 kts | 169° |
| 2026-05-01 09:17 | 45.62944 | 8.71610 | 738 ft | 14 kts | 259° |
| 2026-05-01 09:17 | 45.62933 | 8.71526 | 738 ft | 0 kts | 260° |
| 2026-05-01 09:17 | 45.62891 | 8.71509 | 737 ft | 4 kts | 169° |
| 2026-05-01 09:18 | 45.62862 | 8.71515 | 737 ft | 4 kts | 173° |
| 2026-05-01 09:18 | 45.62848 | 8.71519 | 737 ft | 0 kts | 168° |